Apostolos A — 9HKR6 — position and weather

sailwx.info

Track history (hours):
 
Tides and Currents Weather Stations Pressure Air Temp Water Temp Dewpoint Dewpoint Depression Visibility Wind Speed Wind Dir Waves Ship Positions

Apostolos A

Last reported at 2015-May-29 17:23 UTC. Time now 2015-May-29 18:31 UTC.
Position N 44°44' E 037°47'.

Length 182 m; draft 8.2 m.

Type: Tanker. MMSI: 248594000.

Date/timePositionNaut miles runAvg speedWind from/ knotsBaromVisibWave heightAir tempDewpointWater temp
2015-May-29 17:23N 44°44' E 037°47'0 0.0
2015-May-29 16:32N 44°44' E 037°47'0 0.0
2015-May-29 15:32N 44°44' E 037°47'0 0.0
2015-May-29 14:32N 44°44' E 037°47'0 0.0
2015-May-29 13:32N 44°44' E 037°47'0 0.0
2015-May-29 12:32N 44°44' E 037°47'0 0.0
2015-May-29 11:31N 44°44' E 037°47'0 0.0
2015-May-29 10:28N 44°44' E 037°47'0 0.0
2015-May-29 09:32N 44°44' E 037°47'0 0.0
2015-May-29 08:31N 44°44' E 037°47'0 0.0
2015-May-29 07:31N 44°44' E 037°47'0 0.0
2015-May-29 06:31N 44°44' E 037°47'0 0.0
2015-May-29 05:31N 44°44' E 037°47'0 0.0
2015-May-29 04:28N 44°44' E 037°47'0 0.0
2015-May-29 03:31N 44°44' E 037°47'0 0.0
2015-May-29 02:28N 44°44' E 037°47'0 0.0
2015-May-29 00:16N 44°44' E 037°47'0 0.0
2015-May-28 23:28N 44°44' E 037°47'0 0.0
2015-May-28 21:28N 44°44' E 037°47'0 0.0
2015-May-28 16:31N 44°44' E 037°47'0 0.0
2015-May-28 15:31N 44°44' E 037°47'0 0.0
2015-May-28 14:31N 44°44' E 037°47'0 0.0
2015-May-28 13:31N 44°44' E 037°47'0 0.0
2015-May-28 12:31N 44°44' E 037°47'0 0.0
2015-May-28 11:31N 44°44' E 037°47'0 0.0
2015-May-28 10:31N 44°44' E 037°47'0 0.0
2015-May-28 08:22N 44°44' E 037°47'0 0.0
2015-May-28 06:31N 44°44' E 037°47'0 0.0
2015-May-28 05:22N 44°44' E 037°47'0 0.0
2015-May-28 04:28N 44°44' E 037°47'0 0.0
2015-May-28 03:07N 44°44' E 037°47'0 0.0
2015-May-28 02:31N 44°44' E 037°47'0 0.0
2015-May-27 16:28N 44°44' E 037°47'0 0.4
2015-May-27 15:33N 44°43' E 037°47'6 5.9
2015-May-27 14:33N 44°38' E 037°52'8 7.3
2015-May-27 13:28N 44°31' E 037°47'  
2015-May-21 15:33N 44°38' E 037°50'6 5.7
2015-May-21 14:33N 44°44' E 037°47'0 0.3
2015-May-21 13:28N 44°44' E 037°47'0 0.0
2015-May-21 12:28N 44°44' E 037°47'0 0.0
2015-May-21 11:28N 44°44' E 037°47'0 0.0
2015-May-21 10:28N 44°44' E 037°47'0 0.0
2015-May-21 09:19N 44°44' E 037°47'0 0.0
2015-May-21 08:19N 44°44' E 037°47'0 0.0
2015-May-21 07:19N 44°44' E 037°47'0 0.0
2015-May-21 05:31N 44°44' E 037°47'0 0.0
2015-May-21 03:25N 44°44' E 037°47'0 0.0
2015-May-21 02:25N 44°44' E 037°47'0 0.0
2015-May-20 16:28N 44°44' E 037°47'0 0.0
2015-May-20 15:28N 44°44' E 037°47'0 0.0
2015-May-20 14:16N 44°44' E 037°47'0 0.0
2015-May-20 13:16N 44°44' E 037°47'0 0.0
2015-May-20 12:28N 44°44' E 037°47'0 0.0
2015-May-20 11:25N 44°44' E 037°47'0 0.0
2015-May-20 10:31N 44°44' E 037°47'0 0.0
2015-May-20 09:31N 44°44' E 037°47'0 0.0
2015-May-20 08:28N 44°44' E 037°47'0 0.0
2015-May-20 07:28N 44°44' E 037°47'0 0.0
2015-May-20 06:28N 44°44' E 037°47'0 0.0
2015-May-20 05:31N 44°44' E 037°47'0 0.0
2015-May-20 04:19N 44°44' E 037°47'0 0.0
2015-May-20 03:31N 44°44' E 037°47'0 0.0
2015-May-20 02:28N 44°44' E 037°47'0 0.0
2015-May-20 01:33N 44°44' E 037°47'5 4.7
2015-May-20 00:34N 44°40' E 037°51'  
Track history (hours):
 
Tides and Currents Weather Stations Pressure Air Temp Water Temp Dewpoint Dewpoint Depression Visibility Wind Speed Wind Dir Waves Ship Positions

Apostolos A

Last reported at 2015-May-29 17:23 UTC. Time now 2015-May-29 18:31 UTC.
Position N 44°44' E 037°47'.

Length 182 m; draft 8.2 m.

Type: Tanker. MMSI: 248594000.

Date/timePositionNaut miles runAvg speedWind from/ knotsBaromVisibWave heightAir tempDewpointWater temp
2015-May-29 17:23N 44°44' E 037°47'0 0.0
2015-May-29 16:32N 44°44' E 037°47'0 0.0
2015-May-29 15:32N 44°44' E 037°47'0 0.0
2015-May-29 14:32N 44°44' E 037°47'0 0.0
2015-May-29 13:32N 44°44' E 037°47'0 0.0
2015-May-29 12:32N 44°44' E 037°47'0 0.0
2015-May-29 11:31N 44°44' E 037°47'0 0.0
2015-May-29 10:28N 44°44' E 037°47'0 0.0
2015-May-29 09:32N 44°44' E 037°47'0 0.0
2015-May-29 08:31N 44°44' E 037°47'0 0.0
2015-May-29 07:31N 44°44' E 037°47'0 0.0
2015-May-29 06:31N 44°44' E 037°47'0 0.0
2015-May-29 05:31N 44°44' E 037°47'0 0.0
2015-May-29 04:28N 44°44' E 037°47'0 0.0
2015-May-29 03:31N 44°44' E 037°47'0 0.0
2015-May-29 02:28N 44°44' E 037°47'0 0.0
2015-May-29 00:16N 44°44' E 037°47'0 0.0
2015-May-28 23:28N 44°44' E 037°47'0 0.0
2015-May-28 21:28N 44°44' E 037°47'0 0.0
2015-May-28 16:31N 44°44' E 037°47'0 0.0
2015-May-28 15:31N 44°44' E 037°47'0 0.0
2015-May-28 14:31N 44°44' E 037°47'0 0.0
2015-May-28 13:31N 44°44' E 037°47'0 0.0
2015-May-28 12:31N 44°44' E 037°47'0 0.0
2015-May-28 11:31N 44°44' E 037°47'0 0.0
2015-May-28 10:31N 44°44' E 037°47'0 0.0
2015-May-28 08:22N 44°44' E 037°47'0 0.0
2015-May-28 06:31N 44°44' E 037°47'0 0.0
2015-May-28 05:22N 44°44' E 037°47'0 0.0
2015-May-28 04:28N 44°44' E 037°47'0 0.0
2015-May-28 03:07N 44°44' E 037°47'0 0.0
2015-May-28 02:31N 44°44' E 037°47'0 0.0
2015-May-27 16:28N 44°44' E 037°47'0 0.4
2015-May-27 15:33N 44°43' E 037°47'6 5.9
2015-May-27 14:33N 44°38' E 037°52'8 7.3
2015-May-27 13:28N 44°31' E 037°47'  
2015-May-21 15:33N 44°38' E 037°50'6 5.7
2015-May-21 14:33N 44°44' E 037°47'0 0.3
2015-May-21 13:28N 44°44' E 037°47'0 0.0
2015-May-21 12:28N 44°44' E 037°47'0 0.0
2015-May-21 11:28N 44°44' E 037°47'0 0.0
2015-May-21 10:28N 44°44' E 037°47'0 0.0
2015-May-21 09:19N 44°44' E 037°47'0 0.0
2015-May-21 08:19N 44°44' E 037°47'0 0.0
2015-May-21 07:19N 44°44' E 037°47'0 0.0
2015-May-21 05:31N 44°44' E 037°47'0 0.0
2015-May-21 03:25N 44°44' E 037°47'0 0.0
2015-May-21 02:25N 44°44' E 037°47'0 0.0
2015-May-20 16:28N 44°44' E 037°47'0 0.0
2015-May-20 15:28N 44°44' E 037°47'0 0.0
2015-May-20 14:16N 44°44' E 037°47'0 0.0
2015-May-20 13:16N 44°44' E 037°47'0 0.0
2015-May-20 12:28N 44°44' E 037°47'0 0.0
2015-May-20 11:25N 44°44' E 037°47'0 0.0
2015-May-20 10:31N 44°44' E 037°47'0 0.0
2015-May-20 09:31N 44°44' E 037°47'0 0.0
2015-May-20 08:28N 44°44' E 037°47'0 0.0
2015-May-20 07:28N 44°44' E 037°47'0 0.0
2015-May-20 06:28N 44°44' E 037°47'0 0.0
2015-May-20 05:31N 44°44' E 037°47'0 0.0
2015-May-20 04:19N 44°44' E 037°47'0 0.0
2015-May-20 03:31N 44°44' E 037°47'0 0.0
2015-May-20 02:28N 44°44' E 037°47'0 0.0
2015-May-20 01:33N 44°44' E 037°47'5 4.7
2015-May-20 00:34N 44°40' E 037°51'  

Dump ship's entire track history